sensor_id;sensor_type;location;lat;lon;timestamp;P1;durP1;ratioP1;P2;durP2;ratioP2
21101;SDS011;10709;49.006;12.100;2024-03-17T00:02:23;5.90;;;4.60;;
21101;SDS011;10709;49.006;12.100;2024-03-17T00:04:49;5.43;;;4.10;;
21101;SDS011;10709;49.006;12.100;2024-03-17T00:07:14;5.30;;;4.03;;
21101;SDS011;10709;49.006;12.100;2024-03-17T00:09:40;4.93;;;3.90;;
21101;SDS011;10709;49.006;12.100;2024-03-17T00:12:06;5.30;;;3.80;;
21101;SDS011;10709;49.006;12.100;2024-03-17T00:14:33;5.90;;;4.13;;
21101;SDS011;10709;49.006;12.100;2024-03-17T00:17:00;5.77;;;4.67;;
21101;SDS011;10709;49.006;12.100;2024-03-17T00:19:26;5.27;;;3.97;;
21101;SDS011;10709;49.006;12.100;2024-03-17T00:21:53;6.10;;;4.47;;
21101;SDS011;10709;49.006;12.100;2024-03-17T00:24:19;5.33;;;3.97;;
21101;SDS011;10709;49.006;12.100;2024-03-17T00:26:45;5.17;;;4.00;;
21101;SDS011;10709;49.006;12.100;2024-03-17T00:29:11;5.30;;;3.70;;
21101;SDS011;10709;49.006;12.100;2024-03-17T00:31:36;3.87;;;3.47;;
21101;SDS011;10709;49.006;12.100;2024-03-17T00:34:03;5.43;;;3.77;;
21101;SDS011;10709;49.006;12.100;2024-03-17T00:36:29;6.17;;;3.83;;
21101;SDS011;10709;49.006;12.100;2024-03-17T00:38:55;6.57;;;4.10;;
21101;SDS011;10709;49.006;12.100;2024-03-17T00:41:22;6.00;;;3.93;;
21101;SDS011;10709;49.006;12.100;2024-03-17T00:43:48;5.77;;;4.70;;
21101;SDS011;10709;49.006;12.100;2024-03-17T00:46:15;6.90;;;5.30;;
21101;SDS011;10709;49.006;12.100;2024-03-17T00:48:41;6.83;;;5.00;;
21101;SDS011;10709;49.006;12.100;2024-03-17T00:51:06;6.70;;;4.57;;
21101;SDS011;10709;49.006;12.100;2024-03-17T00:53:33;6.53;;;5.20;;
21101;SDS011;10709;49.006;12.100;2024-03-17T00:55:59;7.83;;;4.80;;
21101;SDS011;10709;49.006;12.100;2024-03-17T00:58:26;6.60;;;4.77;;
21101;SDS011;10709;49.006;12.100;2024-03-17T01:00:52;5.00;;;4.13;;
21101;SDS011;10709;49.006;12.100;2024-03-17T01:03:18;5.70;;;4.57;;
21101;SDS011;10709;49.006;12.100;2024-03-17T01:05:44;7.10;;;4.83;;
21101;SDS011;10709;49.006;12.100;2024-03-17T01:08:12;6.47;;;4.53;;
21101;SDS011;10709;49.006;12.100;2024-03-17T01:10:42;8.03;;;5.27;;
21101;SDS011;10709;49.006;12.100;2024-03-17T01:13:10;5.67;;;4.07;;
21101;SDS011;10709;49.006;12.100;2024-03-17T01:15:36;4.73;;;4.00;;
21101;SDS011;10709;49.006;12.100;2024-03-17T01:18:03;5.33;;;3.90;;
21101;SDS011;10709;49.006;12.100;2024-03-17T01:20:34;6.37;;;4.00;;
21101;SDS011;10709;49.006;12.100;2024-03-17T01:23:01;5.10;;;3.67;;
21101;SDS011;10709;49.006;12.100;2024-03-17T01:25:27;5.20;;;3.40;;
21101;SDS011;10709;49.006;12.100;2024-03-17T01:27:54;5.77;;;3.07;;
21101;SDS011;10709;49.006;12.100;2024-03-17T01:30:21;3.63;;;2.83;;
21101;SDS011;10709;49.006;12.100;2024-03-17T01:32:47;4.37;;;3.20;;
21101;SDS011;10709;49.006;12.100;2024-03-17T01:35:14;3.63;;;3.13;;
21101;SDS011;10709;49.006;12.100;2024-03-17T01:37:40;4.60;;;3.03;;
21101;SDS011;10709;49.006;12.100;2024-03-17T01:40:06;4.43;;;3.37;;
21101;SDS011;10709;49.006;12.100;2024-03-17T01:42:39;4.80;;;3.20;;
21101;SDS011;10709;49.006;12.100;2024-03-17T01:47:54;4.27;;;3.13;;
21101;SDS011;10709;49.006;12.100;2024-03-17T01:50:23;7.33;;;4.07;;
21101;SDS011;10709;49.006;12.100;2024-03-17T01:52:53;4.17;;;3.50;;
21101;SDS011;10709;49.006;12.100;2024-03-17T01:55:21;4.07;;;3.40;;
21101;SDS011;10709;49.006;12.100;2024-03-17T01:57:49;4.30;;;3.50;;
21101;SDS011;10709;49.006;12.100;2024-03-17T02:00:15;4.67;;;3.20;;
21101;SDS011;10709;49.006;12.100;2024-03-17T02:02:41;4.53;;;3.30;;
21101;SDS011;10709;49.006;12.100;2024-03-17T02:05:07;5.77;;;3.60;;
21101;SDS011;10709;49.006;12.100;2024-03-17T02:07:32;4.00;;;3.27;;
21101;SDS011;10709;49.006;12.100;2024-03-17T02:09:58;4.93;;;3.57;;
21101;SDS011;10709;49.006;12.100;2024-03-17T02:12:24;4.83;;;3.33;;
21101;SDS011;10709;49.006;12.100;2024-03-17T02:14:50;4.07;;;3.30;;
21101;SDS011;10709;49.006;12.100;2024-03-17T02:17:16;3.97;;;3.30;;
21101;SDS011;10709;49.006;12.100;2024-03-17T02:19:41;4.00;;;3.40;;
21101;SDS011;10709;49.006;12.100;2024-03-17T02:22:08;4.67;;;3.43;;
21101;SDS011;10709;49.006;12.100;2024-03-17T02:24:38;3.90;;;3.33;;
21101;SDS011;10709;49.006;12.100;2024-03-17T02:27:04;4.90;;;3.67;;
21101;SDS011;10709;49.006;12.100;2024-03-17T02:29:29;6.93;;;4.57;;
21101;SDS011;10709;49.006;12.100;2024-03-17T02:31:55;4.70;;;3.67;;
21101;SDS011;10709;49.006;12.100;2024-03-17T02:34:20;5.63;;;4.20;;
21101;SDS011;10709;49.006;12.100;2024-03-17T02:36:46;4.60;;;3.80;;
21101;SDS011;10709;49.006;12.100;2024-03-17T02:39:12;4.83;;;3.73;;
21101;SDS011;10709;49.006;12.100;2024-03-17T02:41:56;5.87;;;4.13;;
21101;SDS011;10709;49.006;12.100;2024-03-17T02:44:22;4.03;;;3.63;;
21101;SDS011;10709;49.006;12.100;2024-03-17T02:46:48;5.27;;;3.80;;
21101;SDS011;10709;49.006;12.100;2024-03-17T02:49:13;5.67;;;4.07;;
21101;SDS011;10709;49.006;12.100;2024-03-17T02:51:39;7.00;;;4.00;;
21101;SDS011;10709;49.006;12.100;2024-03-17T02:54:05;4.93;;;3.77;;
21101;SDS011;10709;49.006;12.100;2024-03-17T02:56:31;6.77;;;4.20;;
21101;SDS011;10709;49.006;12.100;2024-03-17T02:58:57;6.07;;;4.60;;
21101;SDS011;10709;49.006;12.100;2024-03-17T03:01:22;6.20;;;4.67;;
21101;SDS011;10709;49.006;12.100;2024-03-17T03:03:48;5.23;;;3.80;;
21101;SDS011;10709;49.006;12.100;2024-03-17T03:06:14;5.20;;;3.80;;
21101;SDS011;10709;49.006;12.100;2024-03-17T03:08:45;5.00;;;4.10;;
21101;SDS011;10709;49.006;12.100;2024-03-17T03:11:14;5.73;;;3.90;;
21101;SDS011;10709;49.006;12.100;2024-03-17T03:13:42;4.90;;;4.07;;
21101;SDS011;10709;49.006;12.100;2024-03-17T03:16:12;5.13;;;3.80;;
21101;SDS011;10709;49.006;12.100;2024-03-17T03:18:39;6.03;;;4.30;;
21101;SDS011;10709;49.006;12.100;2024-03-17T03:21:05;4.40;;;3.87;;
21101;SDS011;10709;49.006;12.100;2024-03-17T03:23:31;7.00;;;4.67;;
21101;SDS011;10709;49.006;12.100;2024-03-17T03:25:58;5.40;;;3.90;;
21101;SDS011;10709;49.006;12.100;2024-03-17T03:28:24;4.93;;;3.70;;
21101;SDS011;10709;49.006;12.100;2024-03-17T03:30:51;5.60;;;4.20;;
21101;SDS011;10709;49.006;12.100;2024-03-17T03:33:18;6.23;;;4.00;;
21101;SDS011;10709;49.006;12.100;2024-03-17T03:35:44;4.83;;;3.90;;
21101;SDS011;10709;49.006;12.100;2024-03-17T03:38:11;5.63;;;4.10;;
21101;SDS011;10709;49.006;12.100;2024-03-17T03:40:37;6.00;;;4.40;;
21101;SDS011;10709;49.006;12.100;2024-03-17T03:43:02;4.53;;;3.90;;
21101;SDS011;10709;49.006;12.100;2024-03-17T03:45:28;5.83;;;3.70;;
21101;SDS011;10709;49.006;12.100;2024-03-17T03:47:53;6.60;;;4.10;;
21101;SDS011;10709;49.006;12.100;2024-03-17T03:50:20;6.53;;;3.70;;
21101;SDS011;10709;49.006;12.100;2024-03-17T03:52:46;8.43;;;4.17;;
21101;SDS011;10709;49.006;12.100;2024-03-17T03:55:12;5.57;;;4.40;;
21101;SDS011;10709;49.006;12.100;2024-03-17T03:57:42;4.73;;;3.90;;
21101;SDS011;10709;49.006;12.100;2024-03-17T04:00:08;5.80;;;4.30;;
21101;SDS011;10709;49.006;12.100;2024-03-17T04:02:43;7.20;;;5.13;;
21101;SDS011;10709;49.006;12.100;2024-03-17T04:05:10;7.83;;;5.50;;
21101;SDS011;10709;49.006;12.100;2024-03-17T04:07:36;5.30;;;4.30;;
21101;SDS011;10709;49.006;12.100;2024-03-17T04:10:03;6.93;;;4.47;;
21101;SDS011;10709;49.006;12.100;2024-03-17T04:12:30;4.97;;;4.10;;
21101;SDS011;10709;49.006;12.100;2024-03-17T04:14:56;6.07;;;4.37;;
21101;SDS011;10709;49.006;12.100;2024-03-17T04:17:23;5.27;;;4.07;;
21101;SDS011;10709;49.006;12.100;2024-03-17T04:19:52;5.67;;;4.10;;
21101;SDS011;10709;49.006;12.100;2024-03-17T04:22:19;8.50;;;4.50;;
21101;SDS011;10709;49.006;12.100;2024-03-17T04:24:45;8.17;;;4.50;;
21101;SDS011;10709;49.006;12.100;2024-03-17T04:27:12;5.47;;;4.47;;
21101;SDS011;10709;49.006;12.100;2024-03-17T04:29:38;6.03;;;4.10;;
21101;SDS011;10709;49.006;12.100;2024-03-17T04:32:05;6.20;;;4.70;;
21101;SDS011;10709;49.006;12.100;2024-03-17T04:34:31;6.17;;;4.63;;
21101;SDS011;10709;49.006;12.100;2024-03-17T04:36:57;6.23;;;4.20;;
21101;SDS011;10709;49.006;12.100;2024-03-17T04:39:24;5.30;;;4.37;;
21101;SDS011;10709;49.006;12.100;2024-03-17T04:41:50;4.60;;;3.60;;
21101;SDS011;10709;49.006;12.100;2024-03-17T04:44:16;6.23;;;4.50;;
21101;SDS011;10709;49.006;12.100;2024-03-17T04:46:43;5.67;;;4.07;;
21101;SDS011;10709;49.006;12.100;2024-03-17T04:49:08;7.27;;;4.17;;
21101;SDS011;10709;49.006;12.100;2024-03-17T04:51:34;5.57;;;4.30;;
21101;SDS011;10709;49.006;12.100;2024-03-17T04:54:00;5.50;;;4.20;;
21101;SDS011;10709;49.006;12.100;2024-03-17T04:56:29;5.53;;;4.37;;
21101;SDS011;10709;49.006;12.100;2024-03-17T04:58:54;5.13;;;4.07;;
21101;SDS011;10709;49.006;12.100;2024-03-17T05:01:21;7.37;;;5.07;;
21101;SDS011;10709;49.006;12.100;2024-03-17T05:03:46;7.30;;;4.50;;
21101;SDS011;10709;49.006;12.100;2024-03-17T05:06:12;6.50;;;4.80;;
21101;SDS011;10709;49.006;12.100;2024-03-17T05:08:37;8.00;;;4.67;;
21101;SDS011;10709;49.006;12.100;2024-03-17T05:11:04;5.33;;;4.20;;
21101;SDS011;10709;49.006;12.100;2024-03-17T05:13:31;6.67;;;4.20;;
21101;SDS011;10709;49.006;12.100;2024-03-17T05:15:57;7.07;;;4.83;;
21101;SDS011;10709;49.006;12.100;2024-03-17T05:18:23;6.37;;;4.97;;
21101;SDS011;10709;49.006;12.100;2024-03-17T05:20:57;6.03;;;4.50;;
21101;SDS011;10709;49.006;12.100;2024-03-17T05:23:24;5.87;;;4.83;;
21101;SDS011;10709;49.006;12.100;2024-03-17T05:25:51;6.90;;;5.10;;
21101;SDS011;10709;49.006;12.100;2024-03-17T05:28:17;6.30;;;4.63;;
21101;SDS011;10709;49.006;12.100;2024-03-17T05:30:42;5.30;;;4.20;;
21101;SDS011;10709;49.006;12.100;2024-03-17T05:33:08;6.50;;;4.73;;
21101;SDS011;10709;49.006;12.100;2024-03-17T05:35:33;8.17;;;5.07;;
21101;SDS011;10709;49.006;12.100;2024-03-17T05:37:59;6.33;;;4.80;;
21101;SDS011;10709;49.006;12.100;2024-03-17T05:40:24;6.27;;;4.23;;
21101;SDS011;10709;49.006;12.100;2024-03-17T05:42:50;5.80;;;4.40;;
21101;SDS011;10709;49.006;12.100;2024-03-17T05:45:17;5.80;;;4.53;;
21101;SDS011;10709;49.006;12.100;2024-03-17T05:47:42;6.57;;;4.50;;
21101;SDS011;10709;49.006;12.100;2024-03-17T05:50:09;7.47;;;4.80;;
21101;SDS011;10709;49.006;12.100;2024-03-17T05:52:37;7.93;;;5.07;;
21101;SDS011;10709;49.006;12.100;2024-03-17T05:55:03;6.23;;;4.87;;
21101;SDS011;10709;49.006;12.100;2024-03-17T05:57:29;6.40;;;4.40;;
21101;SDS011;10709;49.006;12.100;2024-03-17T05:59:55;6.77;;;4.80;;
21101;SDS011;10709;49.006;12.100;2024-03-17T06:02:22;6.20;;;4.67;;
21101;SDS011;10709;49.006;12.100;2024-03-17T06:04:49;6.47;;;4.73;;
21101;SDS011;10709;49.006;12.100;2024-03-17T06:07:15;7.63;;;4.70;;
21101;SDS011;10709;49.006;12.100;2024-03-17T06:09:40;7.70;;;4.90;;
21101;SDS011;10709;49.006;12.100;2024-03-17T06:12:06;6.20;;;4.73;;
21101;SDS011;10709;49.006;12.100;2024-03-17T06:14:31;6.33;;;4.83;;
21101;SDS011;10709;49.006;12.100;2024-03-17T06:16:59;7.07;;;4.90;;
21101;SDS011;10709;49.006;12.100;2024-03-17T06:19:25;6.10;;;4.60;;
21101;SDS011;10709;49.006;12.100;2024-03-17T06:21:50;6.87;;;4.67;;
21101;SDS011;10709;49.006;12.100;2024-03-17T06:24:16;6.50;;;4.57;;
21101;SDS011;10709;49.006;12.100;2024-03-17T06:26:42;6.87;;;4.10;;
21101;SDS011;10709;49.006;12.100;2024-03-17T06:29:07;6.43;;;4.83;;
21101;SDS011;10709;49.006;12.100;2024-03-17T06:31:33;7.83;;;5.50;;
21101;SDS011;10709;49.006;12.100;2024-03-17T06:33:59;6.30;;;5.00;;
21101;SDS011;10709;49.006;12.100;2024-03-17T06:36:26;7.23;;;4.93;;
21101;SDS011;10709;49.006;12.100;2024-03-17T06:38:51;6.10;;;4.43;;
21101;SDS011;10709;49.006;12.100;2024-03-17T06:41:17;7.60;;;4.87;;
21101;SDS011;10709;49.006;12.100;2024-03-17T06:43:43;6.23;;;4.73;;
21101;SDS011;10709;49.006;12.100;2024-03-17T06:46:10;7.30;;;4.90;;
21101;SDS011;10709;49.006;12.100;2024-03-17T06:48:36;5.87;;;4.33;;
21101;SDS011;10709;49.006;12.100;2024-03-17T06:51:03;6.60;;;4.10;;
21101;SDS011;10709;49.006;12.100;2024-03-17T06:53:29;6.70;;;4.57;;
21101;SDS011;10709;49.006;12.100;2024-03-17T06:55:58;7.77;;;4.60;;
21101;SDS011;10709;49.006;12.100;2024-03-17T06:58:25;4.97;;;3.70;;
21101;SDS011;10709;49.006;12.100;2024-03-17T07:00:55;5.03;;;3.70;;
21101;SDS011;10709;49.006;12.100;2024-03-17T07:03:22;6.83;;;3.97;;
21101;SDS011;10709;49.006;12.100;2024-03-17T07:05:56;6.47;;;3.77;;
21101;SDS011;10709;49.006;12.100;2024-03-17T07:08:24;5.30;;;3.40;;
21101;SDS011;10709;49.006;12.100;2024-03-17T07:11:00;5.10;;;3.40;;
21101;SDS011;10709;49.006;12.100;2024-03-17T07:13:32;3.90;;;2.80;;
21101;SDS011;10709;49.006;12.100;2024-03-17T07:16:00;4.87;;;3.47;;
21101;SDS011;10709;49.006;12.100;2024-03-17T07:18:27;4.17;;;2.87;;
21101;SDS011;10709;49.006;12.100;2024-03-17T07:21:02;7.07;;;3.30;;
21101;SDS011;10709;49.006;12.100;2024-03-17T07:23:31;5.63;;;3.40;;
21101;SDS011;10709;49.006;12.100;2024-03-17T07:25:59;4.03;;;3.13;;
21101;SDS011;10709;49.006;12.100;2024-03-17T07:28:26;4.43;;;3.37;;
21101;SDS011;10709;49.006;12.100;2024-03-17T07:30:53;4.10;;;2.70;;
21101;SDS011;10709;49.006;12.100;2024-03-17T07:33:21;4.83;;;2.73;;
21101;SDS011;10709;49.006;12.100;2024-03-17T07:35:50;3.70;;;3.07;;
21101;SDS011;10709;49.006;12.100;2024-03-17T07:38:18;4.47;;;3.07;;
21101;SDS011;10709;49.006;12.100;2024-03-17T07:40:55;4.43;;;3.20;;
21101;SDS011;10709;49.006;12.100;2024-03-17T07:43:24;4.23;;;2.90;;
21101;SDS011;10709;49.006;12.100;2024-03-17T07:45:59;5.03;;;2.90;;
21101;SDS011;10709;49.006;12.100;2024-03-17T07:48:35;3.70;;;2.80;;
21101;SDS011;10709;49.006;12.100;2024-03-17T07:51:02;3.63;;;2.90;;
21101;SDS011;10709;49.006;12.100;2024-03-17T07:53:36;4.27;;;3.07;;
21101;SDS011;10709;49.006;12.100;2024-03-17T07:56:07;5.20;;;3.03;;
21101;SDS011;10709;49.006;12.100;2024-03-17T07:58:37;4.83;;;3.00;;
21101;SDS011;10709;49.006;12.100;2024-03-17T08:01:06;3.13;;;2.50;;
21101;SDS011;10709;49.006;12.100;2024-03-17T08:03:33;5.97;;;2.70;;
21101;SDS011;10709;49.006;12.100;2024-03-17T08:06:02;4.00;;;2.73;;
21101;SDS011;10709;49.006;12.100;2024-03-17T08:08:28;3.97;;;3.13;;
21101;SDS011;10709;49.006;12.100;2024-03-17T08:10:54;4.87;;;2.70;;
21101;SDS011;10709;49.006;12.100;2024-03-17T08:13:20;3.83;;;2.47;;
21101;SDS011;10709;49.006;12.100;2024-03-17T08:15:46;4.27;;;2.60;;
21101;SDS011;10709;49.006;12.100;2024-03-17T08:18:20;4.33;;;2.70;;
21101;SDS011;10709;49.006;12.100;2024-03-17T08:20:45;7.80;;;2.67;;
21101;SDS011;10709;49.006;12.100;2024-03-17T08:34:48;3.47;;;2.47;;
21101;SDS011;10709;49.006;12.100;2024-03-17T08:38:55;5.03;;;2.67;;
21101;SDS011;10709;49.006;12.100;2024-03-17T08:42:32;4.30;;;2.80;;
21101;SDS011;10709;49.006;12.100;2024-03-17T08:44:58;3.27;;;2.50;;
21101;SDS011;10709;49.006;12.100;2024-03-17T08:47:23;3.93;;;2.47;;
21101;SDS011;10709;49.006;12.100;2024-03-17T08:49:55;3.27;;;2.50;;
21101;SDS011;10709;49.006;12.100;2024-03-17T08:52:22;5.50;;;3.00;;
21101;SDS011;10709;49.006;12.100;2024-03-17T08:54:48;4.37;;;2.80;;
21101;SDS011;10709;49.006;12.100;2024-03-17T08:57:14;6.53;;;3.00;;
21101;SDS011;10709;49.006;12.100;2024-03-17T08:59:40;6.50;;;3.20;;
21101;SDS011;10709;49.006;12.100;2024-03-17T09:02:07;6.47;;;3.00;;
21101;SDS011;10709;49.006;12.100;2024-03-17T09:04:39;4.30;;;3.07;;
21101;SDS011;10709;49.006;12.100;2024-03-17T09:07:05;3.83;;;3.20;;
21101;SDS011;10709;49.006;12.100;2024-03-17T09:09:31;4.60;;;3.30;;
21101;SDS011;10709;49.006;12.100;2024-03-17T09:11:57;6.77;;;3.40;;
21101;SDS011;10709;49.006;12.100;2024-03-17T09:14:22;4.73;;;3.00;;
21101;SDS011;10709;49.006;12.100;2024-03-17T09:16:48;5.57;;;3.30;;
21101;SDS011;10709;49.006;12.100;2024-03-17T09:19:14;5.60;;;3.40;;
21101;SDS011;10709;49.006;12.100;2024-03-17T09:21:39;6.40;;;3.00;;
21101;SDS011;10709;49.006;12.100;2024-03-17T09:24:06;4.23;;;3.00;;
21101;SDS011;10709;49.006;12.100;2024-03-17T09:26:36;4.27;;;3.03;;
21101;SDS011;10709;49.006;12.100;2024-03-17T09:29:04;6.30;;;3.50;;
21101;SDS011;10709;49.006;12.100;2024-03-17T09:31:31;5.00;;;3.57;;
21101;SDS011;10709;49.006;12.100;2024-03-17T09:33:59;5.00;;;3.23;;
21101;SDS011;10709;49.006;12.100;2024-03-17T09:36:25;4.50;;;3.60;;
21101;SDS011;10709;49.006;12.100;2024-03-17T09:38:50;5.70;;;3.67;;
21101;SDS011;10709;49.006;12.100;2024-03-17T09:41:23;5.97;;;3.60;;
21101;SDS011;10709;49.006;12.100;2024-03-17T09:43:54;4.50;;;3.50;;
21101;SDS011;10709;49.006;12.100;2024-03-17T09:46:24;6.43;;;3.60;;
21101;SDS011;10709;49.006;12.100;2024-03-17T09:48:52;7.37;;;4.10;;
21101;SDS011;10709;49.006;12.100;2024-03-17T09:51:24;7.43;;;4.03;;
21101;SDS011;10709;49.006;12.100;2024-03-17T09:53:50;5.57;;;4.00;;
21101;SDS011;10709;49.006;12.100;2024-03-17T09:56:20;5.43;;;3.93;;
21101;SDS011;10709;49.006;12.100;2024-03-17T09:58:46;5.80;;;4.10;;
21101;SDS011;10709;49.006;12.100;2024-03-17T10:01:15;6.80;;;4.00;;
21101;SDS011;10709;49.006;12.100;2024-03-17T10:03:43;5.70;;;3.87;;
21101;SDS011;10709;49.006;12.100;2024-03-17T10:06:24;5.20;;;4.00;;
21101;SDS011;10709;49.006;12.100;2024-03-17T10:08:53;6.87;;;4.37;;
21101;SDS011;10709;49.006;12.100;2024-03-17T10:11:20;6.87;;;4.23;;
21101;SDS011;10709;49.006;12.100;2024-03-17T10:14:04;5.97;;;4.30;;
21101;SDS011;10709;49.006;12.100;2024-03-17T10:16:38;8.23;;;4.40;;
21101;SDS011;10709;49.006;12.100;2024-03-17T10:19:08;4.67;;;3.77;;
21101;SDS011;10709;49.006;12.100;2024-03-17T10:21:39;4.80;;;4.00;;
21101;SDS011;10709;49.006;12.100;2024-03-17T10:24:27;5.17;;;3.97;;
21101;SDS011;10709;49.006;12.100;2024-03-17T10:26:57;5.67;;;3.90;;
21101;SDS011;10709;49.006;12.100;2024-03-17T10:29:24;4.77;;;3.83;;
21101;SDS011;10709;49.006;12.100;2024-03-17T10:31:55;5.50;;;4.07;;
21101;SDS011;10709;49.006;12.100;2024-03-17T10:34:22;5.80;;;4.00;;
21101;SDS011;10709;49.006;12.100;2024-03-17T10:37:05;6.93;;;4.60;;
21101;SDS011;10709;49.006;12.100;2024-03-17T10:39:43;5.67;;;4.17;;
21101;SDS011;10709;49.006;12.100;2024-03-17T10:42:10;4.83;;;4.00;;
21101;SDS011;10709;49.006;12.100;2024-03-17T10:44:38;5.97;;;4.43;;
21101;SDS011;10709;49.006;12.100;2024-03-17T10:47:05;5.93;;;4.20;;
21101;SDS011;10709;49.006;12.100;2024-03-17T10:49:38;7.03;;;4.37;;
21101;SDS011;10709;49.006;12.100;2024-03-17T10:52:07;8.43;;;3.93;;
21101;SDS011;10709;49.006;12.100;2024-03-17T10:54:52;5.60;;;4.00;;
21101;SDS011;10709;49.006;12.100;2024-03-17T10:57:31;6.23;;;4.13;;
21101;SDS011;10709;49.006;12.100;2024-03-17T11:00:12;5.93;;;4.17;;
21101;SDS011;10709;49.006;12.100;2024-03-17T11:02:42;7.47;;;3.70;;
21101;SDS011;10709;49.006;12.100;2024-03-17T11:05:21;4.43;;;3.80;;
21101;SDS011;10709;49.006;12.100;2024-03-17T11:07:49;6.87;;;4.40;;
21101;SDS011;10709;49.006;12.100;2024-03-17T11:12:54;8.10;;;4.80;;
21101;SDS011;10709;49.006;12.100;2024-03-17T11:17:56;5.67;;;4.03;;
21101;SDS011;10709;49.006;12.100;2024-03-17T11:20:55;5.27;;;3.83;;
21101;SDS011;10709;49.006;12.100;2024-03-17T11:23:25;6.40;;;4.33;;
21101;SDS011;10709;49.006;12.100;2024-03-17T11:25:52;5.70;;;4.40;;
21101;SDS011;10709;49.006;12.100;2024-03-17T11:28:44;6.97;;;4.60;;
21101;SDS011;10709;49.006;12.100;2024-03-17T11:34:06;6.17;;;4.43;;
21101;SDS011;10709;49.006;12.100;2024-03-17T11:36:51;6.00;;;4.30;;
21101;SDS011;10709;49.006;12.100;2024-03-17T11:39:19;4.70;;;3.63;;
21101;SDS011;10709;49.006;12.100;2024-03-17T11:41:53;6.73;;;4.30;;
21101;SDS011;10709;49.006;12.100;2024-03-17T11:44:26;4.97;;;3.97;;
21101;SDS011;10709;49.006;12.100;2024-03-17T11:46:58;5.80;;;3.93;;
21101;SDS011;10709;49.006;12.100;2024-03-17T11:49:29;5.50;;;4.50;;
21101;SDS011;10709;49.006;12.100;2024-03-17T11:51:57;5.10;;;4.17;;
21101;SDS011;10709;49.006;12.100;2024-03-17T11:54:36;7.33;;;4.70;;
21101;SDS011;10709;49.006;12.100;2024-03-17T11:57:03;4.83;;;3.70;;
21101;SDS011;10709;49.006;12.100;2024-03-17T11:59:31;7.73;;;4.20;;
21101;SDS011;10709;49.006;12.100;2024-03-17T12:01:57;6.03;;;3.93;;
21101;SDS011;10709;49.006;12.100;2024-03-17T12:04:23;4.00;;;3.47;;
21101;SDS011;10709;49.006;12.100;2024-03-17T12:06:50;5.00;;;4.07;;
21101;SDS011;10709;49.006;12.100;2024-03-17T12:09:30;5.93;;;4.00;;
21101;SDS011;10709;49.006;12.100;2024-03-17T12:12:01;5.73;;;4.00;;
21101;SDS011;10709;49.006;12.100;2024-03-17T12:14:32;4.67;;;3.80;;
21101;SDS011;10709;49.006;12.100;2024-03-17T12:16:59;5.17;;;3.97;;
21101;SDS011;10709;49.006;12.100;2024-03-17T12:19:27;4.80;;;4.00;;
21101;SDS011;10709;49.006;12.100;2024-03-17T12:21:53;5.43;;;3.80;;
21101;SDS011;10709;49.006;12.100;2024-03-17T12:24:21;5.83;;;4.37;;
21101;SDS011;10709;49.006;12.100;2024-03-17T12:26:48;6.87;;;4.50;;
21101;SDS011;10709;49.006;12.100;2024-03-17T12:31:54;5.43;;;4.00;;
21101;SDS011;10709;49.006;12.100;2024-03-17T12:34:21;5.77;;;4.33;;
21101;SDS011;10709;49.006;12.100;2024-03-17T12:36:47;6.50;;;4.47;;
21101;SDS011;10709;49.006;12.100;2024-03-17T12:41:45;5.83;;;4.10;;
21101;SDS011;10709;49.006;12.100;2024-03-17T12:44:26;7.47;;;4.57;;
21101;SDS011;10709;49.006;12.100;2024-03-17T12:46:58;6.00;;;4.20;;
21101;SDS011;10709;49.006;12.100;2024-03-17T12:49:28;6.70;;;4.43;;
21101;SDS011;10709;49.006;12.100;2024-03-17T12:51:54;5.70;;;4.40;;
21101;SDS011;10709;49.006;12.100;2024-03-17T12:54:24;5.83;;;4.50;;
21101;SDS011;10709;49.006;12.100;2024-03-17T12:56:51;6.50;;;4.60;;
21101;SDS011;10709;49.006;12.100;2024-03-17T12:59:39;5.27;;;4.23;;
21101;SDS011;10709;49.006;12.100;2024-03-17T13:02:25;4.60;;;4.20;;
21101;SDS011;10709;49.006;12.100;2024-03-17T13:07:46;4.40;;;3.73;;
21101;SDS011;10709;49.006;12.100;2024-03-17T13:10:18;4.90;;;3.90;;
21101;SDS011;10709;49.006;12.100;2024-03-17T13:12:45;4.60;;;3.90;;
21101;SDS011;10709;49.006;12.100;2024-03-17T13:15:16;5.03;;;3.73;;
21101;SDS011;10709;49.006;12.100;2024-03-17T13:17:46;5.47;;;4.10;;
21101;SDS011;10709;49.006;12.100;2024-03-17T13:20:15;5.33;;;3.77;;
21101;SDS011;10709;49.006;12.100;2024-03-17T13:22:44;6.47;;;4.23;;
21101;SDS011;10709;49.006;12.100;2024-03-17T13:25:15;6.83;;;4.00;;
21101;SDS011;10709;49.006;12.100;2024-03-17T13:27:42;4.67;;;3.83;;
21101;SDS011;10709;49.006;12.100;2024-03-17T13:30:12;5.10;;;4.10;;
21101;SDS011;10709;49.006;12.100;2024-03-17T13:32:39;5.80;;;4.20;;
21101;SDS011;10709;49.006;12.100;2024-03-17T13:35:08;5.03;;;3.57;;
21101;SDS011;10709;49.006;12.100;2024-03-17T13:37:40;4.70;;;3.67;;
21101;SDS011;10709;49.006;12.100;2024-03-17T13:40:07;4.83;;;3.90;;
21101;SDS011;10709;49.006;12.100;2024-03-17T13:42:33;5.07;;;4.17;;
21101;SDS011;10709;49.006;12.100;2024-03-17T13:44:59;4.70;;;3.53;;
21101;SDS011;10709;49.006;12.100;2024-03-17T13:47:24;6.00;;;4.33;;
21101;SDS011;10709;49.006;12.100;2024-03-17T13:49:50;4.53;;;4.00;;
21101;SDS011;10709;49.006;12.100;2024-03-17T13:52:15;6.13;;;4.30;;
21101;SDS011;10709;49.006;12.100;2024-03-17T13:54:41;5.43;;;3.83;;
21101;SDS011;10709;49.006;12.100;2024-03-17T13:57:06;4.80;;;3.80;;
21101;SDS011;10709;49.006;12.100;2024-03-17T13:59:32;6.10;;;3.90;;
21101;SDS011;10709;49.006;12.100;2024-03-17T14:01:57;4.57;;;3.50;;
21101;SDS011;10709;49.006;12.100;2024-03-17T14:04:23;5.17;;;3.27;;
21101;SDS011;10709;49.006;12.100;2024-03-17T14:06:48;7.47;;;3.77;;
21101;SDS011;10709;49.006;12.100;2024-03-17T14:09:15;4.57;;;3.63;;
21101;SDS011;10709;49.006;12.100;2024-03-17T14:11:44;6.43;;;4.20;;
21101;SDS011;10709;49.006;12.100;2024-03-17T14:14:14;5.43;;;3.70;;
21101;SDS011;10709;49.006;12.100;2024-03-17T14:16:39;4.57;;;3.77;;
21101;SDS011;10709;49.006;12.100;2024-03-17T14:19:06;5.43;;;3.43;;
21101;SDS011;10709;49.006;12.100;2024-03-17T14:21:31;4.10;;;3.07;;
21101;SDS011;10709;49.006;12.100;2024-03-17T14:23:57;4.53;;;3.40;;
21101;SDS011;10709;49.006;12.100;2024-03-17T14:26:24;3.07;;;2.57;;
21101;SDS011;10709;49.006;12.100;2024-03-17T14:28:50;4.00;;;2.87;;
21101;SDS011;10709;49.006;12.100;2024-03-17T14:31:17;5.07;;;2.60;;
21101;SDS011;10709;49.006;12.100;2024-03-17T14:33:43;4.40;;;3.00;;
21101;SDS011;10709;49.006;12.100;2024-03-17T14:36:09;3.60;;;2.93;;
21101;SDS011;10709;49.006;12.100;2024-03-17T14:38:35;3.27;;;2.67;;
21101;SDS011;10709;49.006;12.100;2024-03-17T14:41:01;3.63;;;2.50;;
21101;SDS011;10709;49.006;12.100;2024-03-17T14:43:27;6.10;;;2.67;;
21101;SDS011;10709;49.006;12.100;2024-03-17T14:45:52;3.43;;;2.60;;
21101;SDS011;10709;49.006;12.100;2024-03-17T14:48:18;4.17;;;2.70;;
21101;SDS011;10709;49.006;12.100;2024-03-17T14:50:44;3.60;;;2.47;;
21101;SDS011;10709;49.006;12.100;2024-03-17T14:53:10;3.40;;;2.17;;
21101;SDS011;10709;49.006;12.100;2024-03-17T14:55:38;3.47;;;2.50;;
21101;SDS011;10709;49.006;12.100;2024-03-17T14:58:04;3.87;;;2.43;;
21101;SDS011;10709;49.006;12.100;2024-03-17T15:00:32;5.33;;;3.17;;
21101;SDS011;10709;49.006;12.100;2024-03-17T15:02:57;3.77;;;2.80;;
21101;SDS011;10709;49.006;12.100;2024-03-17T15:05:23;2.90;;;2.40;;
21101;SDS011;10709;49.006;12.100;2024-03-17T15:07:50;2.90;;;2.47;;
21101;SDS011;10709;49.006;12.100;2024-03-17T15:10:17;4.43;;;2.40;;
21101;SDS011;10709;49.006;12.100;2024-03-17T15:12:49;3.03;;;2.20;;